LPLA METAR and TAF weather

Enter ICAO airport designator
Station Type Date Time Source
LPLA METAR 2019/02/23 00:00 UTC NOAA

LPLA 230000Z /////KT 9999 SCT025 BKN030 13/08 Q1010


Station Type Date Time Source
LPLA Decoded METAR 2019/02/23 00:00 UTC NOAA

Lajes Acores , Portugal (LPLA) 38-46N 027-06W 54M
Feb 22, 2019 - 07:00 PM EST / 2019.02.23 0000 UTC
Visibility: greater than 7 mile(s):0
Sky conditions: mostly cloudy
Temperature: 55 F (13 C)
Dew Point: 46 F (8 C)
Relative Humidity: 71%
Pressure (altimeter): 29.83 in. Hg (1010 hPa)
ob: LPLA 230000Z /////KT 9999 SCT025 BKN030 13/08 Q1010
cycle: 0

Station Type Date Time Source
LPLA TAF 2019/02/22 18:18 UTC NOAA

TAF LPLA 221713Z 2218/2318 24014KT 9999 FEW015 SCT030
TEMPO 2218/2221 25015G28KT 7000 -SHRA SCT010 BKN016 FEW020CB
BECMG 2300/2302 17022KT SCT010 BKN020
TEMPO 2301/2313 18027G48KT 5000 -RADZ BR SCT008 BKN012 PROB40
TEMPO 2305/2313 18032G58KT 2000 +TSRA SCT004 BKN006 SCT018CB
BECMG 2312/2314 23015KT SCT015 SCT030
TEMPO 2313/2318 24022G35KT


Example: see airport list